TimeEDT,TemperatureF,Dew PointF,Humidity,Sea Level PressureIn,VisibilityMPH,Wind Direction,Wind SpeedMPH,Gust SpeedMPH,PrecipitationIn,Events,Conditions,WindDirDegrees,DateUTC
12:34 AM,78.8,75.2,89,29.70,5.0,SW,10.4,18.4,N/A,,Overcast,230,2013-06-29 04:34:00
12:51 AM,79.0,75.9,90,29.69,5.0,SW,12.7,19.6,N/A,,Overcast,230,2013-06-29 04:51:00
1:09 AM,78.8,75.2,89,29.69,6.0,SW,15.0,23.0,N/A,,Overcast,230,2013-06-29 05:09:00
1:51 AM,79.0,77.0,94,29.67,6.0,SW,12.7,21.9,N/A,,Overcast,220,2013-06-29 05:51:00
2:23 AM,78.8,75.2,89,29.67,7.0,SW,20.7,32.2,N/A,,Mostly Cloudy,220,2013-06-29 06:23:00
2:51 AM,79.0,75.0,88,29.67,6.0,SW,16.1,29.9,N/A,,Mostly Cloudy,230,2013-06-29 06:51:00
3:03 AM,78.8,75.2,89,29.67,7.0,SW,18.4,25.3,N/A,,Scattered Clouds,230,2013-06-29 07:03:00
3:30 AM,78.8,75.2,89,29.68,7.0,SW,15.0,25.3,N/A,,Mostly Cloudy,230,2013-06-29 07:30:00
3:51 AM,79.0,75.0,88,29.68,6.0,SW,16.1,24.2,N/A,,Overcast,220,2013-06-29 07:51:00
4:51 AM,79.0,75.0,88,29.68,6.0,SW,17.3,26.5,N/A,,Overcast,220,2013-06-29 08:51:00
5:51 AM,79.0,75.0,88,29.70,6.0,SW,19.6,27.6,N/A,,Overcast,230,2013-06-29 09:51:00
6:51 AM,79.0,75.0,88,29.69,5.0,SW,18.4,26.5,N/A,,Mostly Cloudy,220,2013-06-29 10:51:00
7:46 AM,80.6,75.2,84,29.70,5.0,SW,20.7,29.9,N/A,,Haze,230,2013-06-29 11:46:00
7:51 AM,80.1,75.0,85,29.70,6.0,SW,20.7,29.9,N/A,,Haze,230,2013-06-29 11:51:00
8:51 AM,81.0,75.0,82,29.71,5.0,SW,16.1,24.2,N/A,,Haze,230,2013-06-29 12:51:00
9:06 AM,82.4,75.2,79,29.71,5.0,SW,15.0,24.2,N/A,,Haze,220,2013-06-29 13:06:00
9:51 AM,82.0,73.9,76,29.72,6.0,SW,15.0,25.3,N/A,,Haze,230,2013-06-29 13:51:00
10:22 AM,82.4,75.2,79,29.72,6.0,SW,13.8,21.9,N/A,,Haze,230,2013-06-29 14:22:00
10:51 AM,82.9,75.9,79,29.73,5.0,SW,15.0,24.2,N/A,,Haze,220,2013-06-29 14:51:00
11:51 AM,82.0,75.0,79,29.73,6.0,SSW,20.7,31.1,N/A,,Haze,210,2013-06-29 15:51:00
12:25 PM,82.4,75.2,79,29.72,6.0,SW,17.3,26.5,N/A,,Haze,220,2013-06-29 16:25:00
12:51 PM,84.0,75.0,74,29.73,7.0,SW,18.4,29.9,N/A,,Clear,220,2013-06-29 16:51:00
1:17 PM,82.4,75.2,79,29.73,6.0,SW,16.1,24.2,N/A,,Haze,220,2013-06-29 17:17:00
1:51 PM,84.0,75.0,74,29.73,6.0,SW,18.4,26.5,N/A,,Haze,220,2013-06-29 17:51:00
2:40 PM,82.4,75.2,79,29.73,6.0,SW,16.1,31.1,N/A,,Haze,220,2013-06-29 18:40:00
2:49 PM,82.4,75.2,79,29.73,6.0,SW,16.1,26.5,N/A,,Haze,220,2013-06-29 18:49:00
2:51 PM,84.0,75.9,76,29.73,6.0,SW,18.4,26.5,N/A,,Haze,220,2013-06-29 18:51:00
3:51 PM,81.0,75.0,82,29.73,7.0,SSW,17.3,31.1,0.00,,Scattered Clouds,210,2013-06-29 19:51:00
4:51 PM,82.0,73.9,76,29.74,7.0,SSW,20.7,33.4,0.00,,Partly Cloudy,210,2013-06-29 20:51:00
5:51 PM,81.0,73.0,77,29.73,7.0,SW,17.3,28.8,N/A,,Clear,220,2013-06-29 21:51:00
6:51 PM,80.1,72.0,76,29.75,6.0,SW,13.8,24.2,N/A,,Haze,220,2013-06-29 22:51:00
7:51 PM,79.0,73.9,84,29.77,6.0,SW,15.0,23.0,N/A,,Haze,230,2013-06-29 23:51:00
8:51 PM,79.0,73.0,82,29.78,7.0,SSW,18.4,25.3,N/A,,Clear,210,2013-06-30 00:51:00
9:51 PM,78.1,72.0,81,29.83,8.0,SSW,13.8,24.2,0.00,,Scattered Clouds,210,2013-06-30 01:51:00
10:51 PM,79.0,73.0,82,29.82,8.0,SSW,15.0,23.0,0.00,,Scattered Clouds,210,2013-06-30 02:51:00
11:51 PM,79.0,73.0,82,29.82,9.0,SSW,19.6,26.5,N/A,,Scattered Clouds,210,2013-06-30 03:51:00